createdAt,value
2023-04-17T00:02:10.771Z,0.30
2023-04-17T00:04:38.199Z,0.22
2023-04-17T00:07:04.878Z,0.10
2023-04-17T00:09:31.566Z,0.20
2023-04-17T00:11:58.217Z,0.20
2023-04-17T00:14:25.182Z,0.50
2023-04-17T00:16:51.920Z,0.17
2023-04-17T00:19:18.646Z,0.10
2023-04-17T00:21:45.205Z,0.17
2023-04-17T00:24:11.858Z,0.00
2023-04-17T00:26:39.184Z,0.25
2023-04-17T00:29:05.812Z,0.40
2023-04-17T00:31:32.493Z,0.13
2023-04-17T00:33:59.160Z,0.10
2023-04-17T00:36:26.005Z,0.10
2023-04-17T00:38:52.606Z,0.30
2023-04-17T00:41:19.152Z,0.57
2023-04-17T00:43:45.793Z,0.20
2023-04-17T00:46:12.739Z,0.10
2023-04-17T00:48:39.602Z,0.20
2023-04-17T00:51:06.437Z,0.17
2023-04-17T00:53:33.745Z,0.20
2023-04-17T00:56:01.408Z,0.30
2023-04-17T00:58:28.282Z,0.10
2023-04-17T01:00:54.954Z,0.20
2023-04-17T01:03:22.117Z,0.20
2023-04-17T01:05:51.405Z,0.17
2023-04-17T01:08:19.176Z,0.30
2023-04-17T01:10:46.408Z,0.40
2023-04-17T01:13:13.036Z,0.20
2023-04-17T01:15:41.845Z,0.13
2023-04-17T01:18:09.181Z,0.20
2023-04-17T01:20:36.221Z,0.10
2023-04-17T01:23:03.111Z,0.20
2023-04-17T01:25:30.017Z,0.30
2023-04-17T01:27:56.820Z,0.28
2023-04-17T01:30:24.153Z,0.10
2023-04-17T01:33:01.633Z,0.20
2023-04-17T01:35:28.650Z,0.20
2023-04-17T01:37:55.764Z,0.30
2023-04-17T01:40:22.534Z,0.32
2023-04-17T01:42:49.228Z,0.68
2023-04-17T01:45:16.277Z,0.50
2023-04-17T01:47:42.976Z,0.50
2023-04-17T01:50:10.224Z,0.40
2023-04-17T01:52:36.879Z,0.45
2023-04-17T01:55:04.176Z,0.47
2023-04-17T01:57:31.499Z,0.40
2023-04-17T01:59:58.338Z,0.30
2023-04-17T02:02:25.140Z,0.60
2023-04-17T02:04:51.887Z,0.50
2023-04-17T02:07:18.726Z,0.50
2023-04-17T02:09:45.275Z,0.60
2023-04-17T02:12:11.859Z,0.60
2023-04-17T02:14:38.875Z,0.55
2023-04-17T02:17:05.830Z,0.40
2023-04-17T02:19:32.765Z,0.50
2023-04-17T02:22:02.663Z,0.80
2023-04-17T02:24:30.535Z,0.40
2023-04-17T02:27:00.164Z,0.60
2023-04-17T02:29:26.838Z,0.55
2023-04-17T02:31:53.819Z,0.30
2023-04-17T02:34:20.406Z,0.40
2023-04-17T02:36:48.818Z,0.40
2023-04-17T02:39:15.777Z,0.43
2023-04-17T02:41:42.996Z,0.30
2023-04-17T02:44:10.416Z,0.32
2023-04-17T02:46:37.807Z,0.30
2023-04-17T02:49:04.451Z,0.30
2023-04-17T02:51:31.121Z,0.50
2023-04-17T02:53:57.709Z,0.28
2023-04-17T02:56:24.423Z,0.30
2023-04-17T02:58:50.993Z,0.40
2023-04-17T03:01:17.722Z,0.50
2023-04-17T03:06:14.465Z,0.30
2023-04-17T03:08:41.872Z,0.80
2023-04-17T03:11:08.654Z,0.57
2023-04-17T03:13:35.694Z,0.77
2023-04-17T03:16:02.594Z,0.77
2023-04-17T03:18:29.332Z,0.65
2023-04-17T03:20:56.231Z,0.57
2023-04-17T03:23:22.864Z,0.80
2023-04-17T03:25:50.545Z,0.90
2023-04-17T03:28:17.544Z,1.00
2023-04-17T03:30:44.477Z,0.93
2023-04-17T03:33:11.135Z,0.75
2023-04-17T03:35:37.692Z,0.70
2023-04-17T03:38:07.269Z,1.10
2023-04-17T03:40:34.565Z,1.17
2023-04-17T03:43:01.563Z,1.70
2023-04-17T03:47:56.040Z,1.08
2023-04-17T03:50:22.699Z,1.30
2023-04-17T03:52:55.048Z,1.30
2023-04-17T03:55:25.078Z,0.93
2023-04-17T03:57:52.637Z,1.33
2023-04-17T04:00:20.485Z,1.35
2023-04-17T04:02:51.038Z,1.45
2023-04-17T04:05:23.482Z,1.42
2023-04-17T04:07:50.133Z,1.83
2023-04-17T04:10:24.100Z,2.13
2023-04-17T04:12:50.689Z,2.60
2023-04-17T04:15:17.819Z,2.08
2023-04-17T04:17:47.257Z,1.75
2023-04-17T04:20:13.871Z,2.50
2023-04-17T04:22:40.835Z,1.70
2023-04-17T04:25:08.148Z,2.08
2023-04-17T04:27:46.888Z,2.72
2023-04-17T04:30:14.064Z,2.05
2023-04-17T04:32:43.942Z,3.15
2023-04-17T04:35:10.573Z,2.38
2023-04-17T04:37:37.216Z,2.83
2023-04-17T04:40:08.226Z,3.47
2023-04-17T04:42:35.052Z,2.63
2023-04-17T04:45:11.736Z,3.47
2023-04-17T04:47:38.562Z,3.30
2023-04-17T04:50:05.599Z,3.17
2023-04-17T04:52:32.615Z,3.63
2023-04-17T04:55:04.531Z,3.72
2023-04-17T04:57:33.301Z,3.35
2023-04-17T05:00:02.035Z,3.58
2023-04-17T05:02:37.085Z,2.90
2023-04-17T05:05:05.861Z,4.18
2023-04-17T05:07:33.951Z,3.25
2023-04-17T05:10:01.052Z,2.78
2023-04-17T05:12:31.953Z,2.70
2023-04-17T05:14:58.549Z,3.13
2023-04-17T05:17:25.234Z,3.45
2023-04-17T05:19:52.874Z,2.50
2023-04-17T05:22:20.777Z,2.38
2023-04-17T05:25:05.054Z,2.28
2023-04-17T05:27:31.697Z,2.55
2023-04-17T05:29:59.016Z,2.17
2023-04-17T05:32:25.929Z,2.50
2023-04-17T05:34:57.946Z,2.92
2023-04-17T05:37:27.176Z,2.63
2023-04-17T05:39:55.284Z,2.80
2023-04-17T05:42:22.059Z,2.28
2023-04-17T05:44:49.039Z,2.95
2023-04-17T05:47:15.608Z,3.10
2023-04-17T05:49:42.256Z,3.70
2023-04-17T05:52:09.683Z,4.50
2023-04-17T05:54:40.428Z,5.13
2023-04-17T05:57:08.483Z,3.97
2023-04-17T05:59:35.810Z,4.95
2023-04-17T06:02:02.601Z,4.25
2023-04-17T06:04:29.470Z,4.97
2023-04-17T06:06:56.244Z,3.50
2023-04-17T06:09:25.214Z,4.30
2023-04-17T06:11:52.430Z,3.30
2023-04-17T06:14:19.114Z,4.35
2023-04-17T06:16:46.726Z,4.40
2023-04-17T06:19:16.313Z,4.13
2023-04-17T06:21:44.877Z,3.42
2023-04-17T06:24:11.588Z,3.53
2023-04-17T06:26:43.721Z,3.50
2023-04-17T06:29:10.673Z,2.58
2023-04-17T06:31:37.940Z,3.10
2023-04-17T06:34:04.950Z,2.65
2023-04-17T06:36:37.727Z,4.15
2023-04-17T06:39:04.697Z,3.55
2023-04-17T06:41:32.418Z,3.30
2023-04-17T06:46:42.885Z,4.22
2023-04-17T06:49:09.774Z,4.22
2023-04-17T06:51:36.671Z,3.40
2023-04-17T06:54:03.299Z,3.60
2023-04-17T06:56:29.863Z,3.70
2023-04-17T06:58:56.476Z,3.03
2023-04-17T07:01:23.064Z,2.90
2023-04-17T07:03:49.877Z,3.58
2023-04-17T07:06:16.664Z,2.65
2023-04-17T07:08:43.292Z,2.70
2023-04-17T07:11:09.911Z,2.40
2023-04-17T07:13:36.515Z,2.35
2023-04-17T07:16:03.788Z,2.20
2023-04-17T07:18:30.600Z,2.10
2023-04-17T07:20:57.276Z,2.60
2023-04-17T07:23:26.400Z,1.85
2023-04-17T07:25:53.308Z,2.35
2023-04-17T07:28:19.957Z,2.25
2023-04-17T07:30:46.552Z,2.85
2023-04-17T07:33:13.310Z,1.60
2023-04-17T07:35:40.199Z,1.75
2023-04-17T07:38:06.793Z,2.33
2023-04-17T07:40:36.506Z,1.63
2023-04-17T07:43:03.117Z,1.45
2023-04-17T07:45:29.797Z,1.38
2023-04-17T07:47:56.555Z,1.52
2023-04-17T07:50:23.266Z,2.15
2023-04-17T07:52:49.854Z,1.70
2023-04-17T07:55:16.454Z,1.63
2023-04-17T07:57:43.109Z,1.40
2023-04-17T08:00:11.035Z,1.75
2023-04-17T08:02:41.377Z,1.48
2023-04-17T08:05:08.689Z,1.98
2023-04-17T08:07:36.220Z,2.27
2023-04-17T08:10:04.147Z,1.85
2023-04-17T08:12:30.697Z,2.38
2023-04-17T08:14:57.271Z,2.50
2023-04-17T08:17:23.950Z,2.83
2023-04-17T08:19:50.564Z,2.45
2023-04-17T08:22:17.391Z,2.97
2023-04-17T08:24:44.060Z,3.60
2023-04-17T08:27:10.601Z,3.35
2023-04-17T08:29:37.205Z,3.17
2023-04-17T08:32:13.966Z,4.20
2023-04-17T08:34:44.299Z,3.78
2023-04-17T08:37:10.863Z,3.58
2023-04-17T08:39:37.692Z,3.00
2023-04-17T08:42:10.026Z,3.45
2023-04-17T08:44:38.663Z,3.78
2023-04-17T08:47:06.426Z,3.70
2023-04-17T08:49:34.937Z,3.58
2023-04-17T08:52:05.460Z,3.05
2023-04-17T08:54:32.663Z,3.33
2023-04-17T08:57:02.650Z,3.30
2023-04-17T08:59:29.297Z,3.03
2023-04-17T09:02:07.922Z,4.00
2023-04-17T09:04:37.418Z,4.30
2023-04-17T09:07:08.564Z,4.13
2023-04-17T09:09:54.275Z,4.05
2023-04-17T09:12:25.762Z,4.35
2023-04-17T09:14:53.015Z,3.83
2023-04-17T09:17:21.365Z,3.60
2023-04-17T09:20:07.994Z,5.47
2023-04-17T09:22:36.496Z,6.22
2023-04-17T09:25:03.724Z,7.00
2023-04-17T09:27:30.691Z,5.65
2023-04-17T09:30:02.922Z,6.35
2023-04-17T09:32:34.204Z,5.53
2023-04-17T09:35:03.083Z,5.85
2023-04-17T09:37:55.622Z,5.60
2023-04-17T09:40:23.677Z,5.53
2023-04-17T09:45:21.607Z,4.97
2023-04-17T09:47:48.591Z,6.22
2023-04-17T09:50:16.592Z,6.80
2023-04-17T09:55:11.851Z,5.63
2023-04-17T09:57:38.713Z,6.97
2023-04-17T10:00:06.300Z,7.57
2023-04-17T10:02:33.486Z,5.25
2023-04-17T10:05:00.613Z,6.40
2023-04-17T10:07:27.254Z,6.05
2023-04-17T10:09:53.908Z,6.55
2023-04-17T10:12:21.225Z,6.55
2023-04-17T10:14:51.421Z,7.07
2023-04-17T10:17:29.359Z,6.40
2023-04-17T10:22:22.672Z,6.65
2023-04-17T10:25:12.843Z,7.00
2023-04-17T10:27:39.589Z,7.05
2023-04-17T10:30:08.368Z,8.57
2023-04-17T10:32:35.086Z,9.23
2023-04-17T10:35:22.453Z,8.52
2023-04-17T10:37:49.041Z,9.38
2023-04-17T10:40:19.868Z,10.07
2023-04-17T10:43:05.161Z,10.23
2023-04-17T10:45:58.153Z,10.68
2023-04-17T10:48:30.241Z,8.55
2023-04-17T10:50:57.209Z,9.20
2023-04-17T10:53:41.840Z,8.50
2023-04-17T10:56:10.386Z,13.32
2023-04-17T10:58:56.625Z,10.18
2023-04-17T11:01:29.012Z,10.98
2023-04-17T11:03:56.690Z,10.55
2023-04-17T11:06:27.352Z,12.77
2023-04-17T11:08:57.181Z,10.98
2023-04-17T11:11:35.267Z,9.65
2023-04-17T11:14:18.297Z,9.05
2023-04-17T11:16:47.534Z,10.35
2023-04-17T11:19:22.063Z,9.95
2023-04-17T11:21:56.256Z,10.13
2023-04-17T11:24:32.454Z,10.77
2023-04-17T11:27:00.450Z,10.13
2023-04-17T11:29:27.806Z,12.20
2023-04-17T11:31:56.625Z,9.48
2023-04-17T11:34:25.943Z,10.80
2023-04-17T11:36:54.548Z,9.90
2023-04-17T11:39:22.782Z,9.68
2023-04-17T11:41:51.556Z,8.80
2023-04-17T11:44:19.203Z,8.80
2023-04-17T11:46:50.386Z,8.52
2023-04-17T11:49:23.396Z,9.25
2023-04-17T11:51:50.035Z,9.55
2023-04-17T11:54:31.156Z,10.63
2023-04-17T11:57:02.814Z,11.48
2023-04-17T11:59:37.397Z,11.15
2023-04-17T12:02:06.259Z,9.77
2023-04-17T12:04:34.570Z,9.82
2023-04-17T12:07:02.910Z,8.25
2023-04-17T12:09:29.527Z,7.88
2023-04-17T12:11:56.188Z,7.35
2023-04-17T12:14:24.076Z,7.22
2023-04-17T12:16:51.773Z,7.43
2023-04-17T12:19:18.744Z,8.93
2023-04-17T12:21:46.107Z,7.97
2023-04-17T12:24:12.999Z,7.95
2023-04-17T12:26:47.102Z,7.35
2023-04-17T12:29:14.485Z,8.20
2023-04-17T12:31:41.203Z,6.75
2023-04-17T12:34:08.014Z,6.20
2023-04-17T12:36:34.777Z,5.57
2023-04-17T12:39:01.609Z,6.32
2023-04-17T12:41:28.191Z,6.10
2023-04-17T12:43:54.848Z,7.07
2023-04-17T12:46:21.852Z,6.60
2023-04-17T12:48:48.449Z,7.03
2023-04-17T12:51:15.219Z,7.13
2023-04-17T12:53:41.781Z,7.80
2023-04-17T12:56:08.409Z,7.15
2023-04-17T12:58:35.047Z,6.50
2023-04-17T13:01:01.661Z,7.45
2023-04-17T13:03:28.479Z,7.07
2023-04-17T13:05:55.213Z,7.38
2023-04-17T13:08:21.769Z,6.60
2023-04-17T13:10:48.371Z,7.75
2023-04-17T13:13:15.004Z,8.32
2023-04-17T13:15:42.018Z,7.45
2023-04-17T13:18:08.764Z,7.18
2023-04-17T13:20:35.372Z,6.55
2023-04-17T13:23:01.963Z,6.53
2023-04-17T13:25:30.289Z,6.78
2023-04-17T13:27:56.897Z,6.90
2023-04-17T13:30:23.528Z,6.25
2023-04-17T13:32:50.237Z,6.53
2023-04-17T13:35:16.935Z,7.97
2023-04-17T13:37:43.534Z,7.65
2023-04-17T13:40:10.438Z,5.95
2023-04-17T13:42:37.196Z,5.88
2023-04-17T13:45:04.813Z,6.13
2023-04-17T13:47:31.510Z,7.60
2023-04-17T13:49:58.199Z,6.65
2023-04-17T13:52:24.940Z,5.45
2023-04-17T13:54:51.480Z,4.57
2023-04-17T13:57:18.160Z,5.28
2023-04-17T13:59:45.074Z,6.03
2023-04-17T14:02:11.810Z,6.30
2023-04-17T14:04:38.698Z,5.90
2023-04-17T14:07:05.990Z,6.60
2023-04-17T14:09:32.715Z,6.03
2023-04-17T14:11:59.357Z,7.00
2023-04-17T14:14:25.936Z,7.30
2023-04-17T14:16:53.585Z,5.85
2023-04-17T14:19:20.404Z,5.57
2023-04-17T14:21:47.212Z,5.05
2023-04-17T14:24:13.966Z,4.93
2023-04-17T14:26:40.676Z,4.45
2023-04-17T14:29:07.275Z,4.57
2023-04-17T14:31:33.925Z,3.38
2023-04-17T14:34:00.513Z,3.65
2023-04-17T14:36:27.260Z,3.83
2023-04-17T14:38:53.849Z,2.72
2023-04-17T14:41:20.588Z,2.67
2023-04-17T14:43:47.360Z,2.83
2023-04-17T14:46:17.103Z,3.60
2023-04-17T14:48:55.056Z,2.55
2023-04-17T14:51:25.472Z,2.30
2023-04-17T14:53:53.091Z,2.72
2023-04-17T14:56:20.332Z,3.10
2023-04-17T14:58:46.999Z,2.95
2023-04-17T15:01:13.619Z,2.80
2023-04-17T15:03:40.592Z,2.70
2023-04-17T15:06:08.579Z,2.77
2023-04-17T15:08:35.164Z,2.95
2023-04-17T15:11:01.837Z,3.00
2023-04-17T15:13:28.457Z,2.53
2023-04-17T15:15:55.085Z,2.50
2023-04-17T15:18:21.758Z,3.05
2023-04-17T15:20:48.440Z,3.20
2023-04-17T15:23:15.068Z,3.03
2023-04-17T15:25:41.751Z,2.70
2023-04-17T15:28:08.563Z,3.08
2023-04-17T15:30:35.258Z,2.42
2023-04-17T15:33:02.003Z,3.00
2023-04-17T15:35:28.638Z,3.20
2023-04-17T15:37:55.241Z,2.72
2023-04-17T15:40:21.884Z,2.40
2023-04-17T15:42:48.552Z,2.88
2023-04-17T15:45:15.115Z,2.72
2023-04-17T15:47:41.736Z,3.08
2023-04-17T15:50:08.888Z,2.65
2023-04-17T15:52:35.439Z,2.80
2023-04-17T15:55:02.148Z,2.65
2023-04-17T15:57:28.927Z,2.67
2023-04-17T15:59:55.487Z,2.63
2023-04-17T16:02:22.738Z,2.35
2023-04-17T16:04:49.503Z,2.50
2023-04-17T16:07:16.076Z,3.13
2023-04-17T16:09:42.625Z,2.80
2023-04-17T16:12:10.267Z,2.75
2023-04-17T16:14:37.919Z,2.97
2023-04-17T16:17:05.005Z,2.30
2023-04-17T16:19:32.398Z,2.90
2023-04-17T16:21:59.401Z,2.28
2023-04-17T16:24:26.407Z,2.50
2023-04-17T16:27:01.800Z,2.67
2023-04-17T16:29:28.417Z,3.13
2023-04-17T16:31:55.627Z,2.60
2023-04-17T16:34:22.641Z,2.42
2023-04-17T16:36:49.515Z,2.10
2023-04-17T16:39:16.275Z,2.53
2023-04-17T16:41:43.354Z,2.38
2023-04-17T16:44:13.286Z,3.78
2023-04-17T16:47:02.911Z,3.10
2023-04-17T16:49:27.542Z,3.88
2023-04-17T16:51:54.091Z,2.43
2023-04-17T16:54:20.732Z,2.90
2023-04-17T16:56:48.612Z,3.10
2023-04-17T16:59:15.548Z,2.72
2023-04-17T17:01:42.456Z,2.95
2023-04-17T17:04:09.165Z,3.53
2023-04-17T17:06:35.849Z,2.97
2023-04-17T17:09:02.733Z,2.55
2023-04-17T17:11:29.584Z,3.00
2023-04-17T17:13:56.162Z,3.90
2023-04-17T17:16:22.892Z,3.58
2023-04-17T17:18:49.526Z,3.20
2023-04-17T17:21:17.204Z,3.28
2023-04-17T17:23:43.797Z,2.90
2023-04-17T17:26:10.354Z,2.47
2023-04-17T17:28:37.411Z,2.83
2023-04-17T17:31:07.708Z,2.88
2023-04-17T17:33:35.491Z,2.47
2023-04-17T17:36:02.352Z,2.50
2023-04-17T17:38:35.063Z,2.70
2023-04-17T17:41:01.731Z,2.92
2023-04-17T17:43:28.426Z,2.65
2023-04-17T17:45:55.076Z,2.97
2023-04-17T17:48:21.730Z,3.28
2023-04-17T17:50:48.311Z,3.05
2023-04-17T17:53:14.869Z,2.63
2023-04-17T17:55:41.520Z,2.70
2023-04-17T17:58:08.974Z,3.45
2023-04-17T18:00:35.700Z,2.80
2023-04-17T18:03:02.900Z,2.13
2023-04-17T18:05:29.634Z,3.27
2023-04-17T18:07:56.255Z,2.83
2023-04-17T18:10:22.975Z,5.30
2023-04-17T18:12:49.553Z,3.70
2023-04-17T18:15:16.266Z,2.42
2023-04-17T18:17:42.840Z,2.83
2023-04-17T18:20:09.898Z,2.30
2023-04-17T18:22:36.492Z,2.70
2023-04-17T18:25:03.099Z,3.13
2023-04-17T18:27:29.746Z,2.53
2023-04-17T18:29:56.445Z,2.30
2023-04-17T18:32:23.126Z,3.80
2023-04-17T18:34:49.696Z,2.97
2023-04-17T18:37:18.139Z,3.40
2023-04-17T18:39:45.182Z,7.75
2023-04-17T18:42:11.746Z,7.05
2023-04-17T18:44:38.431Z,10.13
2023-04-17T18:47:05.184Z,7.55
2023-04-17T18:49:31.800Z,5.15
2023-04-17T18:51:58.507Z,3.83
2023-04-17T18:54:25.190Z,2.63
2023-04-17T18:56:51.831Z,2.17
2023-04-17T18:59:18.433Z,2.17
2023-04-17T19:01:45.016Z,2.35
2023-04-17T19:04:11.753Z,2.28
2023-04-17T19:06:38.565Z,2.78
2023-04-17T19:09:05.262Z,2.78
2023-04-17T19:11:32.054Z,2.10
2023-04-17T19:13:58.645Z,3.40
2023-04-17T19:16:25.395Z,3.40
2023-04-17T19:18:51.985Z,2.92
2023-04-17T19:21:18.640Z,3.05
2023-04-17T19:23:45.269Z,3.55
2023-04-17T19:26:11.946Z,3.80
2023-04-17T19:28:38.594Z,3.08
2023-04-17T19:31:05.222Z,2.47
2023-04-17T19:33:32.522Z,2.70
2023-04-17T19:35:59.637Z,2.87
2023-04-17T19:38:26.291Z,2.60
2023-04-17T19:41:11.801Z,2.63
2023-04-17T19:43:38.442Z,2.63
2023-04-17T19:46:05.050Z,2.90
2023-04-17T19:48:31.777Z,2.63
2023-04-17T19:50:58.369Z,2.47
2023-04-17T19:53:24.929Z,2.70
2023-04-17T19:55:51.492Z,3.72
2023-04-17T19:58:18.352Z,2.65
2023-04-17T20:00:44.917Z,2.70
2023-04-17T20:03:11.710Z,3.20
2023-04-17T20:05:38.373Z,2.83
2023-04-17T20:08:05.217Z,2.38
2023-04-17T20:10:31.875Z,2.58
2023-04-17T20:12:58.472Z,2.17
2023-04-17T20:15:25.081Z,2.95
2023-04-17T20:17:51.721Z,2.15
2023-04-17T20:20:18.315Z,2.30
2023-04-17T20:22:44.938Z,2.63
2023-04-17T20:25:11.519Z,2.47
2023-04-17T20:27:38.097Z,2.80
2023-04-17T20:30:05.186Z,2.42
2023-04-17T20:32:31.866Z,2.28
2023-04-17T20:34:58.559Z,2.40
2023-04-17T20:37:25.348Z,2.83
2023-04-17T20:39:51.949Z,2.95
2023-04-17T20:42:18.532Z,2.42
2023-04-17T20:44:45.152Z,2.50
2023-04-17T20:47:11.821Z,2.85
2023-04-17T20:49:38.379Z,2.78
2023-04-17T20:52:04.975Z,2.97
2023-04-17T20:54:31.584Z,2.60
2023-04-17T20:56:58.244Z,2.53
2023-04-17T20:59:24.908Z,3.03
2023-04-17T21:01:51.538Z,2.42
2023-04-17T21:04:18.262Z,2.28
2023-04-17T21:06:45.026Z,3.03
2023-04-17T21:09:11.572Z,3.80
2023-04-17T21:11:38.244Z,3.25
2023-04-17T21:14:04.851Z,3.30
2023-04-17T21:16:31.671Z,3.38
2023-04-17T21:18:58.300Z,3.08
2023-04-17T21:21:24.910Z,4.47
2023-04-17T21:23:51.812Z,3.22
2023-04-17T21:26:18.382Z,3.75
2023-04-17T21:28:44.958Z,3.50
2023-04-17T21:31:14.501Z,4.53
2023-04-17T21:33:41.136Z,4.03
2023-04-17T21:36:07.757Z,4.03
2023-04-17T21:38:34.318Z,3.92
2023-04-17T21:41:01.087Z,3.47
2023-04-17T21:43:27.642Z,3.92
2023-04-17T21:45:54.258Z,4.55
2023-04-17T21:48:20.891Z,3.88
2023-04-17T21:50:47.459Z,3.97
2023-04-17T21:53:14.141Z,3.53
2023-04-17T21:55:40.728Z,3.55
2023-04-17T21:58:07.355Z,4.07
2023-04-17T22:00:33.918Z,3.35
2023-04-17T22:03:00.705Z,3.83
2023-04-17T22:05:27.547Z,3.97
2023-04-17T22:07:55.312Z,4.38
2023-04-17T22:12:49.471Z,3.90
2023-04-17T22:15:16.227Z,4.80
2023-04-17T22:17:42.849Z,4.93
2023-04-17T22:20:09.867Z,5.00
2023-04-17T22:22:36.550Z,4.10
2023-04-17T22:25:03.268Z,4.93
2023-04-17T22:27:29.850Z,5.05
2023-04-17T22:29:56.516Z,4.63
2023-04-17T22:32:23.118Z,4.15
2023-04-17T22:34:50.084Z,3.88
2023-04-17T22:37:16.644Z,3.65
2023-04-17T22:39:43.358Z,5.15
2023-04-17T22:42:09.940Z,3.80
2023-04-17T22:44:36.679Z,4.07
2023-04-17T22:47:03.373Z,3.90
2023-04-17T22:49:30.021Z,3.67
2023-04-17T22:51:56.749Z,3.25
2023-04-17T22:54:23.555Z,3.03
2023-04-17T22:56:50.169Z,3.90
2023-04-17T22:59:16.786Z,3.72
2023-04-17T23:01:43.386Z,3.88
2023-04-17T23:04:10.003Z,4.32
2023-04-17T23:06:36.685Z,3.85
2023-04-17T23:09:03.273Z,3.85
2023-04-17T23:11:31.754Z,3.50
2023-04-17T23:13:58.423Z,3.92
2023-04-17T23:16:25.120Z,3.60
2023-04-17T23:18:51.909Z,3.33
2023-04-17T23:21:18.538Z,3.58
2023-04-17T23:23:45.162Z,4.60
2023-04-17T23:26:15.081Z,3.75
2023-04-17T23:28:41.684Z,3.97
2023-04-17T23:31:08.437Z,4.38
2023-04-17T23:33:35.079Z,24.35
2023-04-17T23:36:01.887Z,21.60
2023-04-17T23:38:28.543Z,14.48
2023-04-17T23:40:55.270Z,8.88
2023-04-17T23:43:21.842Z,5.32
2023-04-17T23:45:48.551Z,3.83
2023-04-17T23:48:15.089Z,3.50
2023-04-17T23:50:41.841Z,3.67
2023-04-17T23:53:08.478Z,3.60
2023-04-17T23:55:35.126Z,3.28
2023-04-17T23:58:01.852Z,3.15
